createdAt,value
2023-05-06T00:01:06.234Z,2.10
2023-05-06T00:03:26.809Z,2.60
2023-05-06T00:05:47.995Z,2.35
2023-05-06T00:08:08.310Z,2.20
2023-05-06T00:10:28.413Z,2.15
2023-05-06T00:12:48.713Z,2.45
2023-05-06T00:15:09.613Z,2.78
2023-05-06T00:17:30.306Z,3.22
2023-05-06T00:19:51.865Z,2.67
2023-05-06T00:22:11.753Z,3.25
2023-05-06T00:24:32.022Z,2.47
2023-05-06T00:26:52.768Z,3.00
2023-05-06T00:29:12.738Z,2.78
2023-05-06T00:31:32.913Z,2.58
2023-05-06T00:33:53.033Z,2.42
2023-05-06T00:36:13.197Z,2.10
2023-05-06T00:38:33.165Z,2.85
2023-05-06T00:40:53.517Z,3.20
2023-05-06T00:43:13.643Z,2.47
2023-05-06T00:45:33.858Z,2.85
2023-05-06T00:47:54.334Z,3.60
2023-05-06T00:50:14.899Z,2.25
2023-05-06T00:52:35.457Z,3.22
2023-05-06T00:54:55.689Z,3.42
2023-05-06T00:57:15.715Z,2.42
2023-05-06T00:59:35.884Z,2.78
2023-05-06T01:01:56.169Z,2.95
2023-05-06T01:04:16.500Z,2.95
2023-05-06T01:06:50.042Z,2.47
2023-05-06T01:09:19.388Z,2.67
2023-05-06T01:12:08.911Z,2.45
2023-05-06T01:14:34.907Z,2.75
2023-05-06T01:16:55.640Z,3.08
2023-05-06T01:19:26.683Z,2.65
2023-05-06T01:21:47.340Z,2.40
2023-05-06T01:24:07.646Z,2.42
2023-05-06T01:26:27.962Z,2.55
2023-05-06T01:28:48.576Z,2.45
2023-05-06T01:31:10.719Z,2.63
2023-05-06T01:33:40.107Z,3.23
2023-05-06T01:36:06.467Z,2.83
2023-05-06T01:38:31.602Z,2.85
2023-05-06T01:40:53.790Z,2.75
2023-05-06T01:43:14.941Z,3.25
2023-05-06T01:45:36.301Z,3.40
2023-05-06T01:47:57.017Z,2.63
2023-05-06T01:50:17.235Z,3.05
2023-05-06T01:52:37.442Z,3.38
2023-05-06T01:54:57.781Z,2.85
2023-05-06T01:57:17.722Z,1.98
2023-05-06T01:59:38.018Z,2.50
2023-05-06T02:01:58.190Z,2.95
2023-05-06T02:04:18.251Z,3.42
2023-05-06T02:06:38.589Z,2.67
2023-05-06T02:08:58.798Z,2.72
2023-05-06T02:11:19.201Z,2.85
2023-05-06T02:13:39.736Z,2.60
2023-05-06T02:16:00.642Z,2.50
2023-05-06T02:18:21.035Z,3.05
2023-05-06T02:20:41.426Z,3.25
2023-05-06T02:23:01.728Z,2.72
2023-05-06T02:25:22.486Z,3.15
2023-05-06T02:27:44.411Z,2.58
2023-05-06T02:30:05.828Z,2.80
2023-05-06T02:32:26.444Z,2.80
2023-05-06T02:34:46.848Z,2.97
2023-05-06T02:37:07.051Z,3.65
2023-05-06T02:39:27.213Z,2.70
2023-05-06T02:41:47.366Z,3.20
2023-05-06T02:44:07.753Z,2.50
2023-05-06T02:46:27.858Z,3.60
2023-05-06T02:48:48.033Z,2.78
2023-05-06T02:51:08.161Z,3.03
2023-05-06T02:53:28.207Z,3.42
2023-05-06T02:55:48.373Z,3.08
2023-05-06T02:58:08.822Z,2.90
2023-05-06T03:00:29.125Z,3.80
2023-05-06T03:02:49.186Z,2.83
2023-05-06T03:05:09.723Z,4.15
2023-05-06T03:07:29.784Z,3.50
2023-05-06T03:09:50.211Z,3.35
2023-05-06T03:12:11.179Z,4.15
2023-05-06T03:14:31.756Z,3.03
2023-05-06T03:16:52.198Z,3.47
2023-05-06T03:19:12.416Z,3.28
2023-05-06T03:21:32.578Z,3.10
2023-05-06T03:23:52.474Z,4.00
2023-05-06T03:26:12.600Z,3.03
2023-05-06T03:28:32.617Z,3.65
2023-05-06T03:30:52.726Z,4.03
2023-05-06T03:33:12.720Z,3.72
2023-05-06T03:35:32.933Z,3.78
2023-05-06T03:37:52.937Z,3.83
2023-05-06T03:40:13.328Z,3.03
2023-05-06T03:42:33.802Z,3.63
2023-05-06T03:44:54.285Z,3.58
2023-05-06T03:47:14.360Z,3.85
2023-05-06T03:49:34.811Z,3.75
2023-05-06T03:51:55.433Z,3.90
2023-05-06T03:54:15.814Z,3.33
2023-05-06T03:56:36.028Z,3.45
2023-05-06T03:58:56.197Z,3.25
2023-05-06T04:01:17.505Z,3.38
2023-05-06T04:03:37.582Z,3.78
2023-05-06T04:05:57.677Z,4.45
2023-05-06T04:08:17.960Z,4.18
2023-05-06T04:10:41.423Z,4.05
2023-05-06T04:13:02.081Z,3.70
2023-05-06T04:15:23.432Z,3.70
2023-05-06T04:17:43.535Z,3.65
2023-05-06T04:20:06.119Z,3.35
2023-05-06T04:22:26.443Z,2.95
2023-05-06T04:24:46.918Z,3.40
2023-05-06T04:27:07.292Z,3.58
2023-05-06T04:29:27.439Z,3.60
2023-05-06T04:31:47.739Z,3.97
2023-05-06T04:34:10.198Z,4.82
2023-05-06T04:36:30.691Z,4.95
2023-05-06T04:38:52.593Z,4.38
2023-05-06T04:41:13.297Z,4.32
2023-05-06T04:43:33.393Z,4.00
2023-05-06T04:45:53.658Z,4.80
2023-05-06T04:48:13.607Z,4.32
2023-05-06T04:50:33.826Z,4.88
2023-05-06T04:52:53.958Z,3.75
2023-05-06T04:55:14.181Z,4.05
2023-05-06T04:57:34.522Z,3.15
2023-05-06T04:59:54.596Z,3.40
2023-05-06T05:02:14.780Z,4.38
2023-05-06T05:04:35.763Z,4.20
2023-05-06T05:06:56.996Z,4.75
2023-05-06T05:09:17.038Z,4.00
2023-05-06T05:11:37.927Z,4.10
2023-05-06T05:13:59.584Z,3.63
2023-05-06T05:16:21.849Z,4.03
2023-05-06T05:18:41.895Z,3.13
2023-05-06T05:21:02.076Z,3.05
2023-05-06T05:23:22.296Z,3.28
2023-05-06T05:25:42.515Z,4.10
2023-05-06T05:28:02.509Z,3.65
2023-05-06T05:30:22.987Z,4.32
2023-05-06T05:32:42.997Z,3.83
2023-05-06T05:35:03.557Z,3.67
2023-05-06T05:37:23.976Z,3.55
2023-05-06T05:39:44.012Z,3.45
2023-05-06T05:42:04.324Z,3.30
2023-05-06T05:44:24.385Z,3.97
2023-05-06T05:46:45.136Z,3.75
2023-05-06T05:49:05.848Z,4.25
2023-05-06T05:51:26.113Z,3.75
2023-05-06T05:53:46.412Z,3.97
2023-05-06T05:56:07.174Z,4.68
2023-05-06T05:58:27.621Z,3.70
2023-05-06T06:00:48.218Z,3.08
2023-05-06T06:03:08.513Z,2.70
2023-05-06T06:05:29.048Z,4.20
2023-05-06T06:07:49.282Z,3.17
2023-05-06T06:10:09.515Z,3.60
2023-05-06T06:12:29.680Z,3.63
2023-05-06T06:14:50.580Z,3.08
2023-05-06T06:17:10.989Z,2.63
2023-05-06T06:19:31.575Z,3.58
2023-05-06T06:21:51.732Z,3.35
2023-05-06T06:24:12.604Z,2.80
2023-05-06T06:26:33.024Z,2.20
2023-05-06T06:28:53.340Z,2.97
2023-05-06T06:31:13.425Z,2.38
2023-05-06T06:33:33.661Z,2.75
2023-05-06T06:35:54.088Z,1.85
2023-05-06T06:38:14.099Z,1.52
2023-05-06T06:40:34.287Z,2.05
2023-05-06T06:42:54.557Z,2.20
2023-05-06T06:45:15.049Z,2.03
2023-05-06T06:47:35.552Z,2.20
2023-05-06T06:49:55.787Z,1.80
2023-05-06T06:52:15.886Z,1.70
2023-05-06T06:54:41.014Z,1.60
2023-05-06T06:57:01.361Z,1.60
2023-05-06T06:59:21.481Z,1.45
2023-05-06T07:01:42.225Z,1.70
2023-05-06T07:04:02.658Z,1.23
2023-05-06T07:06:23.349Z,1.15
2023-05-06T07:08:43.599Z,1.10
2023-05-06T07:11:06.619Z,1.00
2023-05-06T07:15:47.293Z,1.10
2023-05-06T07:18:07.653Z,1.10
2023-05-06T07:20:27.685Z,1.20
2023-05-06T07:22:47.854Z,1.20
2023-05-06T07:25:08.688Z,1.00
2023-05-06T07:27:30.124Z,1.10
2023-05-06T07:29:50.750Z,1.52
2023-05-06T07:32:10.939Z,1.10
2023-05-06T07:34:32.306Z,1.00
2023-05-06T07:36:52.673Z,1.00
2023-05-06T07:39:12.753Z,1.10
2023-05-06T07:41:33.233Z,1.10
2023-05-06T07:43:53.641Z,1.15
2023-05-06T07:46:13.976Z,1.00
2023-05-06T07:48:34.360Z,1.20
2023-05-06T07:50:54.814Z,1.10
2023-05-06T07:53:14.841Z,1.20
2023-05-06T07:55:36.945Z,1.00
2023-05-06T07:57:57.393Z,1.30
2023-05-06T08:00:18.289Z,1.00
2023-05-06T08:02:43.421Z,1.00
2023-05-06T08:05:03.668Z,1.10
2023-05-06T08:07:23.854Z,0.95
2023-05-06T08:09:43.979Z,1.10
2023-05-06T08:12:05.133Z,0.90
2023-05-06T08:14:26.020Z,0.98
2023-05-06T08:16:46.773Z,1.00
2023-05-06T08:19:07.144Z,1.00
2023-05-06T08:21:27.334Z,1.00
2023-05-06T08:23:47.667Z,1.20
2023-05-06T08:26:07.890Z,0.90
2023-05-06T08:28:28.651Z,1.05
2023-05-06T08:30:50.886Z,1.20
2023-05-06T08:33:11.220Z,1.00
2023-05-06T08:35:31.476Z,0.90
2023-05-06T08:37:51.712Z,1.00
2023-05-06T08:40:19.551Z,0.90
2023-05-06T08:42:39.593Z,1.25
2023-05-06T08:44:59.723Z,0.90
2023-05-06T08:47:20.433Z,0.93
2023-05-06T08:49:40.477Z,0.90
2023-05-06T08:52:03.929Z,0.90
2023-05-06T08:54:25.901Z,0.88
2023-05-06T08:56:47.666Z,0.90
2023-05-06T08:59:12.964Z,0.90
2023-05-06T09:01:33.294Z,0.90
2023-05-06T09:03:55.254Z,1.30
2023-05-06T09:06:15.315Z,1.10
2023-05-06T09:08:35.945Z,0.90
2023-05-06T09:10:56.786Z,0.90
2023-05-06T09:13:18.808Z,0.88
2023-05-06T09:15:40.209Z,0.93
2023-05-06T09:18:00.870Z,0.80
2023-05-06T09:20:21.176Z,0.80
2023-05-06T09:22:41.639Z,0.80
2023-05-06T09:25:01.882Z,0.88
2023-05-06T09:27:26.353Z,0.80
2023-05-06T09:30:00.260Z,0.88
2023-05-06T09:32:20.818Z,0.90
2023-05-06T09:34:45.824Z,1.20
2023-05-06T09:37:06.119Z,0.90
2023-05-06T09:39:27.067Z,0.80
2023-05-06T09:41:47.027Z,0.88
2023-05-06T09:44:07.413Z,0.90
2023-05-06T09:46:27.441Z,0.80
2023-05-06T09:48:49.791Z,0.90
2023-05-06T09:51:10.093Z,0.90
2023-05-06T09:53:31.041Z,0.80
2023-05-06T09:55:51.741Z,0.85
2023-05-06T09:58:12.556Z,0.80
2023-05-06T10:00:32.801Z,0.80
2023-05-06T10:02:53.713Z,0.80
2023-05-06T10:05:14.794Z,0.88
2023-05-06T10:07:35.835Z,0.80
2023-05-06T10:09:58.286Z,0.80
2023-05-06T10:12:19.111Z,0.80
2023-05-06T10:14:39.516Z,0.75
2023-05-06T10:16:59.714Z,0.80
2023-05-06T10:19:24.246Z,0.70
2023-05-06T10:21:47.232Z,0.70
2023-05-06T10:24:09.741Z,0.70
2023-05-06T10:26:31.064Z,0.70
2023-05-06T10:28:53.022Z,0.80
2023-05-06T10:31:13.395Z,0.65
2023-05-06T10:33:34.039Z,1.15
2023-05-06T10:35:56.863Z,0.70
2023-05-06T10:38:20.042Z,0.70
2023-05-06T10:40:40.712Z,0.80
2023-05-06T10:43:21.092Z,0.90
2023-05-06T10:46:00.963Z,0.70
2023-05-06T10:48:20.945Z,0.75
2023-05-06T10:50:41.132Z,0.70
2023-05-06T10:53:01.348Z,1.00
2023-05-06T10:55:29.018Z,0.70
2023-05-06T10:57:49.195Z,0.73
2023-05-06T11:00:11.408Z,0.75
2023-05-06T11:02:32.075Z,0.70
2023-05-06T11:04:52.256Z,0.70
2023-05-06T11:07:15.974Z,0.70
2023-05-06T11:09:54.057Z,0.70
2023-05-06T11:12:14.257Z,0.60
2023-05-06T11:14:35.116Z,0.70
2023-05-06T11:16:56.873Z,0.70
2023-05-06T11:19:26.875Z,0.60
2023-05-06T11:21:48.333Z,0.70
2023-05-06T11:24:10.551Z,0.60
2023-05-06T11:26:32.153Z,0.70
2023-05-06T11:28:52.535Z,0.60
2023-05-06T11:31:13.357Z,0.60
2023-05-06T11:33:34.995Z,0.60
2023-05-06T11:35:55.152Z,0.60
2023-05-06T11:38:15.480Z,0.60
2023-05-06T11:40:35.840Z,0.60
2023-05-06T11:42:56.205Z,0.60
2023-05-06T11:45:16.677Z,0.60
2023-05-06T11:47:43.862Z,0.50
2023-05-06T11:50:06.773Z,0.60
2023-05-06T11:52:26.782Z,0.60
2023-05-06T11:57:07.481Z,0.70
2023-05-06T11:59:28.874Z,0.60
2023-05-06T12:01:49.767Z,0.60
2023-05-06T12:04:10.728Z,0.70
2023-05-06T12:06:37.120Z,0.60
2023-05-06T12:08:57.608Z,0.60
2023-05-06T12:11:17.789Z,0.60
2023-05-06T12:13:39.900Z,0.60
2023-05-06T12:16:00.787Z,0.60
2023-05-06T12:18:21.251Z,0.60
2023-05-06T12:20:41.669Z,0.50
2023-05-06T12:23:06.245Z,0.50
2023-05-06T12:25:26.427Z,0.50
2023-05-06T12:27:46.639Z,0.60
2023-05-06T12:30:08.574Z,0.60
2023-05-06T12:32:28.872Z,0.60
2023-05-06T12:34:49.101Z,0.50
2023-05-06T12:37:09.104Z,0.70
2023-05-06T12:39:34.186Z,0.60
2023-05-06T12:41:54.391Z,0.60
2023-05-06T12:44:34.069Z,0.60
2023-05-06T12:46:54.361Z,0.50
2023-05-06T12:49:14.526Z,0.60
2023-05-06T12:51:34.653Z,0.50
2023-05-06T12:53:55.200Z,0.50
2023-05-06T12:56:15.324Z,0.60
2023-05-06T12:58:37.029Z,0.60
2023-05-06T13:00:57.181Z,0.60
2023-05-06T13:03:18.533Z,0.85
2023-05-06T13:05:38.968Z,0.60
2023-05-06T13:07:59.408Z,0.50
2023-05-06T13:10:20.070Z,0.60
2023-05-06T13:12:40.457Z,0.50
2023-05-06T13:15:00.752Z,0.88
2023-05-06T13:17:21.269Z,0.50
2023-05-06T13:19:41.583Z,0.77
2023-05-06T13:22:02.215Z,0.60
2023-05-06T13:24:22.268Z,0.52
2023-05-06T13:26:42.524Z,0.50
2023-05-06T13:29:02.731Z,0.50
2023-05-06T13:31:23.185Z,0.52
2023-05-06T13:33:43.277Z,0.50
2023-05-06T13:36:05.196Z,0.60
2023-05-06T13:40:47.064Z,0.52
2023-05-06T13:43:07.196Z,0.60
2023-05-06T13:45:27.223Z,0.88
2023-05-06T13:47:47.255Z,0.50
2023-05-06T13:50:07.694Z,0.50
2023-05-06T13:52:28.067Z,0.57
2023-05-06T13:54:48.913Z,0.50
2023-05-06T13:57:09.286Z,0.50
2023-05-06T13:59:29.265Z,0.50
2023-05-06T14:01:52.982Z,0.52
2023-05-06T14:04:13.110Z,0.50
2023-05-06T14:06:33.196Z,0.60
2023-05-06T14:08:53.240Z,0.60
2023-05-06T14:11:13.467Z,0.50
2023-05-06T14:13:34.197Z,0.60
2023-05-06T14:15:55.145Z,0.60
2023-05-06T14:18:15.417Z,0.60
2023-05-06T14:20:35.815Z,0.60
2023-05-06T14:22:56.065Z,0.60
2023-05-06T14:25:16.300Z,0.60
2023-05-06T14:27:36.790Z,0.60
2023-05-06T14:29:57.424Z,0.50
2023-05-06T14:32:17.526Z,0.50
2023-05-06T14:34:37.832Z,0.60
2023-05-06T14:36:58.299Z,0.60
2023-05-06T14:39:18.640Z,0.50
2023-05-06T14:41:38.709Z,0.52
2023-05-06T14:43:58.837Z,0.50
2023-05-06T14:46:19.194Z,0.60
2023-05-06T14:48:39.205Z,0.80
2023-05-06T14:50:59.764Z,0.60
2023-05-06T14:53:19.755Z,0.50
2023-05-06T14:55:40.754Z,0.50
2023-05-06T14:58:00.734Z,0.60
2023-05-06T15:00:20.981Z,0.60
2023-05-06T15:02:41.419Z,0.60
2023-05-06T15:05:03.937Z,0.60
2023-05-06T15:07:24.601Z,0.77
2023-05-06T15:09:44.875Z,0.60
2023-05-06T15:12:05.204Z,0.60
2023-05-06T15:14:25.147Z,0.60
2023-05-06T15:16:45.426Z,0.57
2023-05-06T15:19:05.626Z,0.80
2023-05-06T15:21:26.932Z,0.60
2023-05-06T15:23:47.178Z,0.60
2023-05-06T15:26:07.395Z,0.60
2023-05-06T15:28:27.446Z,0.60
2023-05-06T15:30:47.715Z,0.60
2023-05-06T15:33:08.341Z,0.60
2023-05-06T15:35:28.660Z,0.50
2023-05-06T15:37:48.655Z,0.60
2023-05-06T15:40:11.420Z,0.60
2023-05-06T15:42:31.628Z,0.60
2023-05-06T15:44:54.165Z,0.60
2023-05-06T15:47:14.476Z,0.60
2023-05-06T15:49:51.588Z,0.60
2023-05-06T15:52:14.950Z,0.60
2023-05-06T15:54:37.816Z,0.60
2023-05-06T15:56:59.850Z,0.60
2023-05-06T15:59:20.259Z,0.65
2023-05-06T16:04:03.570Z,0.60
2023-05-06T16:06:23.756Z,0.60
2023-05-06T16:08:43.958Z,0.60
2023-05-06T16:11:04.804Z,0.90
2023-05-06T16:13:25.630Z,0.90
2023-05-06T16:15:46.160Z,15.30
2023-05-06T16:18:06.341Z,5.78
2023-05-06T16:20:26.409Z,1.58
2023-05-06T16:22:50.432Z,8.10
2023-05-06T16:25:10.992Z,17.00
2023-05-06T16:27:31.299Z,2.05
2023-05-06T16:29:51.427Z,0.60
2023-05-06T16:32:11.627Z,0.70
2023-05-06T16:34:31.685Z,0.60
2023-05-06T16:36:51.833Z,0.70
2023-05-06T16:39:11.849Z,0.60
2023-05-06T16:41:31.907Z,0.70
2023-05-06T16:43:52.226Z,0.70
2023-05-06T16:46:12.554Z,0.60
2023-05-06T16:48:33.016Z,0.68
2023-05-06T16:50:53.163Z,0.60
2023-05-06T16:53:13.948Z,0.70
2023-05-06T16:55:34.144Z,0.70
2023-05-06T16:57:54.471Z,0.70
2023-05-06T17:00:15.760Z,0.65
2023-05-06T17:02:36.317Z,0.70
2023-05-06T17:04:56.603Z,0.60
2023-05-06T17:07:16.793Z,0.70
2023-05-06T17:09:37.026Z,0.60
2023-05-06T17:11:57.311Z,0.70
2023-05-06T17:14:19.109Z,0.70
2023-05-06T17:16:39.820Z,0.65
2023-05-06T17:19:00.509Z,0.70
2023-05-06T17:21:20.726Z,0.75
2023-05-06T17:23:40.661Z,0.73
2023-05-06T17:26:01.142Z,0.73
2023-05-06T17:28:21.303Z,0.70
2023-05-06T17:30:41.296Z,0.80
2023-05-06T17:33:01.991Z,0.70
2023-05-06T17:35:22.473Z,0.70
2023-05-06T17:37:42.977Z,0.70
2023-05-06T17:40:05.141Z,0.60
2023-05-06T17:42:29.131Z,0.63
2023-05-06T17:44:49.452Z,1.00
2023-05-06T17:47:10.077Z,0.80
2023-05-06T17:49:30.557Z,0.70
2023-05-06T17:51:51.032Z,0.70
2023-05-06T17:54:11.226Z,0.80
2023-05-06T17:56:31.491Z,0.70
2023-05-06T17:58:51.525Z,0.70
2023-05-06T18:01:11.724Z,0.70
2023-05-06T18:03:31.836Z,0.80
2023-05-06T18:05:51.898Z,0.70
2023-05-06T18:08:11.913Z,0.70
2023-05-06T18:10:32.041Z,0.70
2023-05-06T18:12:52.954Z,0.80
2023-05-06T18:15:13.791Z,0.80
2023-05-06T18:17:34.117Z,0.80
2023-05-06T18:19:54.274Z,0.80
2023-05-06T18:22:14.609Z,0.80
2023-05-06T18:24:36.497Z,1.05
2023-05-06T18:26:57.775Z,0.80
2023-05-06T18:29:17.660Z,0.80
2023-05-06T18:31:37.596Z,0.75
2023-05-06T18:33:57.758Z,0.80
2023-05-06T18:36:18.061Z,0.85
2023-05-06T18:38:38.044Z,1.05
2023-05-06T18:40:58.234Z,0.80
2023-05-06T18:43:18.561Z,1.00
2023-05-06T18:45:39.086Z,1.10
2023-05-06T18:47:59.301Z,1.00
2023-05-06T18:50:19.560Z,0.90
2023-05-06T18:52:40.119Z,1.00
2023-05-06T18:55:01.853Z,0.90
2023-05-06T18:57:22.934Z,0.90
2023-05-06T18:59:42.992Z,0.90
2023-05-06T19:02:04.120Z,0.90
2023-05-06T19:04:25.360Z,1.10
2023-05-06T19:06:45.451Z,0.80
2023-05-06T19:09:06.676Z,1.10
2023-05-06T19:11:26.614Z,0.80
2023-05-06T19:13:46.879Z,1.02
2023-05-06T19:16:07.225Z,0.90
2023-05-06T19:18:27.335Z,0.90
2023-05-06T19:20:47.455Z,0.90
2023-05-06T19:23:07.955Z,0.90
2023-05-06T19:25:27.899Z,0.80
2023-05-06T19:27:48.183Z,0.90
2023-05-06T19:30:08.637Z,0.80
2023-05-06T19:32:29.167Z,1.00
2023-05-06T19:34:49.456Z,0.90
2023-05-06T19:37:10.057Z,0.93
2023-05-06T19:39:30.801Z,0.90
2023-05-06T19:41:53.139Z,0.90
2023-05-06T19:44:13.343Z,0.90
2023-05-06T19:46:33.530Z,1.67
2023-05-06T19:48:53.722Z,2.40
2023-05-06T19:51:13.850Z,1.17
2023-05-06T19:53:34.152Z,1.70
2023-05-06T19:55:58.605Z,6.40
2023-05-06T19:58:19.025Z,3.78
2023-05-06T20:00:39.126Z,3.47
2023-05-06T20:03:00.112Z,2.83
2023-05-06T20:05:20.207Z,2.88
2023-05-06T20:07:40.691Z,1.75
2023-05-06T20:10:01.119Z,1.67
2023-05-06T20:12:21.802Z,1.13
2023-05-06T20:14:42.257Z,1.20
2023-05-06T20:17:02.408Z,1.40
2023-05-06T20:19:25.558Z,1.50
2023-05-06T20:21:45.636Z,1.25
2023-05-06T20:24:05.912Z,1.30
2023-05-06T20:26:26.158Z,1.10
2023-05-06T20:28:46.300Z,1.10
2023-05-06T20:31:06.563Z,1.10
2023-05-06T20:33:26.558Z,1.05
2023-05-06T20:35:47.355Z,1.20
2023-05-06T20:38:08.614Z,2.67
2023-05-06T20:40:28.912Z,2.85
2023-05-06T20:42:49.018Z,1.88
2023-05-06T20:45:09.677Z,1.30
2023-05-06T20:47:29.867Z,1.48
2023-05-06T20:49:50.216Z,2.90
2023-05-06T20:52:13.790Z,1.77
2023-05-06T20:54:34.449Z,1.73
2023-05-06T20:56:54.792Z,1.38
2023-05-06T20:59:15.346Z,1.30
2023-05-06T21:01:35.506Z,1.40
2023-05-06T21:03:55.710Z,1.33
2023-05-06T21:06:16.609Z,1.20
2023-05-06T21:08:36.545Z,1.35
2023-05-06T21:10:56.783Z,1.42
2023-05-06T21:13:16.890Z,1.13
2023-05-06T21:15:37.511Z,1.40
2023-05-06T21:17:57.786Z,1.67
2023-05-06T21:20:18.764Z,1.20
2023-05-06T21:22:39.112Z,1.20
2023-05-06T21:24:59.236Z,1.20
2023-05-06T21:27:19.385Z,1.40
2023-05-06T21:29:39.510Z,1.88
2023-05-06T21:31:59.624Z,1.50
2023-05-06T21:34:20.198Z,1.20
2023-05-06T21:36:41.621Z,1.73
2023-05-06T21:39:10.077Z,1.40
2023-05-06T21:41:30.395Z,1.30
2023-05-06T21:43:50.629Z,1.95
2023-05-06T21:46:10.753Z,1.80
2023-05-06T21:48:30.794Z,1.38
2023-05-06T21:50:51.769Z,1.30
2023-05-06T21:53:12.237Z,1.65
2023-05-06T21:55:32.230Z,1.50
2023-05-06T21:57:52.430Z,2.28
2023-05-06T22:00:12.819Z,1.50
2023-05-06T22:02:33.060Z,1.55
2023-05-06T22:04:53.139Z,1.33
2023-05-06T22:07:13.202Z,1.10
2023-05-06T22:09:33.273Z,1.30
2023-05-06T22:11:53.499Z,1.30
2023-05-06T22:14:14.292Z,1.40
2023-05-06T22:16:34.771Z,1.33
2023-05-06T22:18:56.212Z,1.55
2023-05-06T22:21:16.287Z,1.42
2023-05-06T22:23:37.123Z,1.60
2023-05-06T22:25:58.592Z,1.20
2023-05-06T22:28:20.155Z,1.50
2023-05-06T22:30:40.219Z,1.52
2023-05-06T22:33:00.645Z,1.80
2023-05-06T22:35:20.932Z,2.15
2023-05-06T22:37:40.960Z,2.58
2023-05-06T22:40:01.071Z,3.63
2023-05-06T22:42:21.198Z,1.92
2023-05-06T22:44:41.364Z,1.60
2023-05-06T22:47:01.655Z,1.60
2023-05-06T22:49:21.570Z,1.92
2023-05-06T22:51:41.908Z,1.65
2023-05-06T22:54:02.465Z,1.70
2023-05-06T22:56:22.550Z,1.80
2023-05-06T22:58:43.510Z,1.33
2023-05-06T23:01:03.807Z,1.88
2023-05-06T23:03:23.934Z,1.65
2023-05-06T23:05:44.109Z,1.60
2023-05-06T23:08:04.161Z,1.63
2023-05-06T23:10:24.218Z,1.80
2023-05-06T23:12:44.756Z,1.75
2023-05-06T23:15:05.714Z,1.83
2023-05-06T23:17:26.082Z,1.60
2023-05-06T23:19:46.125Z,1.80
2023-05-06T23:22:06.311Z,2.33
2023-05-06T23:24:26.617Z,2.38
2023-05-06T23:26:46.821Z,1.90
2023-05-06T23:29:07.013Z,2.10
2023-05-06T23:31:27.446Z,2.38
2023-05-06T23:33:47.615Z,1.77
2023-05-06T23:36:08.020Z,1.88
2023-05-06T23:38:28.328Z,1.98
2023-05-06T23:40:49.189Z,1.83
2023-05-06T23:43:10.627Z,1.80
2023-05-06T23:45:30.823Z,2.20
2023-05-06T23:47:50.928Z,1.85
2023-05-06T23:50:11.438Z,1.58
2023-05-06T23:52:31.701Z,1.77
2023-05-06T23:54:51.775Z,1.30
2023-05-06T23:57:11.932Z,1.40
2023-05-06T23:59:32.998Z,1.80
